createdAt,value
2019-05-12T00:00:39.179Z,7.9
2019-05-12T00:05:40.514Z,7.8
2019-05-12T00:10:42.996Z,7.8
2019-05-12T00:15:47.534Z,7.7
2019-05-12T00:20:47.969Z,7.7
2019-05-12T00:25:50.101Z,7.7
2019-05-12T00:30:52.659Z,7.7
2019-05-12T00:35:55.001Z,7.6
2019-05-12T00:40:58.283Z,7.6
2019-05-12T00:45:59.902Z,7.5
2019-05-12T00:51:02.634Z,7.5
2019-05-12T00:56:04.826Z,7.5
2019-05-12T01:01:08.107Z,7.4
2019-05-12T01:06:09.829Z,7.4
2019-05-12T01:11:12.268Z,7.4
2019-05-12T01:16:14.638Z,7.3
2019-05-12T01:21:18.421Z,7.1
2019-05-12T01:26:19.640Z,6.8
2019-05-12T01:31:22.126Z,6.6
2019-05-12T01:36:24.523Z,6.4
2019-05-12T01:41:28.615Z,6.4
2019-05-12T01:46:29.438Z,6.4
2019-05-12T01:51:31.876Z,6.3
2019-05-12T01:56:34.398Z,6.3
2019-05-12T02:01:38.808Z,6.3
2019-05-12T02:06:39.255Z,6.2
2019-05-12T02:11:41.749Z,6.1
2019-05-12T02:16:44.149Z,6.1
2019-05-12T02:21:48.620Z,6.1
2019-05-12T02:26:49.118Z,6.1
2019-05-12T02:31:51.856Z,6.1
2019-05-12T02:36:55.447Z,6.1
2019-05-12T02:41:56.471Z,6
2019-05-12T02:46:58.872Z,5.9
2019-05-12T02:52:01.355Z,5.9
2019-05-12T02:57:04.380Z,5.9
2019-05-12T03:02:06.330Z,5.9
2019-05-12T03:07:08.847Z,5.9
2019-05-12T03:12:14.106Z,6
2019-05-12T03:17:15.309Z,6
2019-05-12T03:22:16.143Z,6
2019-05-12T03:27:18.548Z,6
2019-05-12T03:32:26.506Z,6
2019-05-12T03:37:30.421Z,6
2019-05-12T03:42:25.966Z,6
2019-05-12T03:47:28.429Z,6
2019-05-12T03:52:30.848Z,6
2019-05-12T03:57:34.468Z,6
2019-05-12T04:02:35.775Z,5.9
2019-05-12T04:07:38.292Z,5.9
2019-05-12T04:12:40.717Z,5.9
2019-05-12T04:17:45.122Z,5.9
2019-05-12T04:22:45.687Z,6
2019-05-12T04:27:48.032Z,6
2019-05-12T04:37:55.272Z,6.1
2019-05-12T04:42:55.538Z,6.1
2019-05-12T04:47:57.955Z,6.2
2019-05-12T04:53:00.352Z,6.3
2019-05-12T04:58:04.364Z,6.3
2019-05-12T05:03:05.905Z,6.4
2019-05-12T05:08:07.820Z,6.6
2019-05-12T05:13:10.265Z,6.7
2019-05-12T05:18:13.322Z,6.8
2019-05-12T05:23:15.140Z,6.8
2019-05-12T05:28:17.531Z,7
2019-05-12T05:33:20.134Z,7.1
2019-05-12T05:38:23.668Z,7.3
2019-05-12T05:43:24.946Z,7.4
2019-05-12T05:48:27.371Z,7.5
2019-05-12T05:53:29.837Z,7.8
2019-05-12T05:58:33.890Z,8.1
2019-05-12T06:03:34.739Z,8.4
2019-05-12T06:08:37.203Z,8.6
2019-05-12T06:13:40.185Z,8.8
2019-05-12T06:18:43.896Z,8.9
2019-05-12T06:23:44.690Z,8.9
2019-05-12T06:28:47.042Z,8.8
2019-05-12T06:33:49.511Z,8.7
2019-05-12T06:43:54.503Z,8.7
2019-05-12T06:49:00.298Z,8.8
2019-05-12T06:54:00.804Z,9.1
2019-05-12T06:59:09.323Z,9.4
2019-05-12T07:04:06.301Z,9.7
2019-05-12T07:09:09.703Z,9.9
2019-05-12T07:19:17.029Z,10.2
2019-05-12T07:24:14.293Z,10.4
2019-05-12T07:29:16.542Z,10.6
2019-05-12T07:34:19.037Z,10.6
2019-05-12T07:39:24.017Z,10.5
2019-05-12T07:44:25.194Z,10.4
2019-05-12T07:49:33.931Z,10.4
2019-05-12T07:54:29.278Z,10.3
2019-05-12T07:59:35.489Z,10.4
2019-05-12T08:04:39.539Z,10.8
2019-05-12T08:09:36.745Z,11.1
2019-05-12T08:14:38.666Z,11.1
2019-05-12T08:19:41.113Z,11.1
2019-05-12T08:24:47.951Z,11.1
2019-05-12T08:29:46.028Z,10.9
2019-05-12T08:34:48.498Z,10.9
2019-05-12T08:39:53.101Z,10.9
2019-05-12T08:44:54.211Z,11
2019-05-12T08:49:58.554Z,11.2
2019-05-12T08:54:58.307Z,11.5
2019-05-12T09:00:03.120Z,11.8
2019-05-12T09:05:04.598Z,12.1
2019-05-12T09:10:06.227Z,12.3
2019-05-12T09:15:08.530Z,12.6
2019-05-12T09:20:10.664Z,12.8
2019-05-12T09:25:14.278Z,13.2
2019-05-12T09:30:15.566Z,13.6
2019-05-12T09:35:18.029Z,14.3
2019-05-12T09:40:22.065Z,15.7
2019-05-12T09:45:24.206Z,16.1
2019-05-12T09:50:25.352Z,16.6
2019-05-12T09:55:27.789Z,18.9
2019-05-12T10:00:35.644Z,20
2019-05-12T10:05:37.371Z,20.7
2019-05-12T10:10:39.977Z,20.5
2019-05-12T10:15:37.649Z,20.2
2019-05-12T10:20:40.168Z,19.9
2019-05-12T10:25:44.531Z,21.5
2019-05-12T10:30:47.038Z,23.1
2019-05-12T10:35:47.576Z,25.8
2019-05-12T10:40:50.218Z,27.4
2019-05-12T10:45:53.741Z,27.9
2019-05-12T10:50:54.964Z,29.7
2019-05-12T10:55:57.368Z,30.4
2019-05-12T11:01:04.967Z,30.5
2019-05-12T11:06:06.719Z,30
2019-05-12T11:11:04.699Z,28
2019-05-12T11:16:07.613Z,27
2019-05-12T11:21:09.681Z,27.3
2019-05-12T11:26:14.046Z,29.8
2019-05-12T11:31:14.509Z,31.2
2019-05-12T11:36:16.981Z,30.1
2019-05-12T11:41:20.318Z,28.2
2019-05-12T11:46:23.761Z,27.2
2019-05-12T11:51:26.864Z,26.1
2019-05-12T11:56:26.832Z,24.7
2019-05-12T12:01:29.288Z,24
2019-05-12T12:06:33.121Z,23.2
2019-05-12T12:11:34.330Z,22
2019-05-12T12:16:41.789Z,21.4
2019-05-12T12:21:40.268Z,22
2019-05-12T12:26:44.215Z,21.4
2019-05-12T12:31:44.040Z,21
2019-05-12T12:36:46.656Z,22.1
2019-05-12T12:41:55.984Z,21.7
2019-05-12T12:46:59.724Z,21.3
2019-05-12T12:51:53.840Z,21.5
2019-05-12T12:57:00.004Z,21.7
2019-05-12T13:02:04.087Z,22.3
2019-05-12T13:07:01.238Z,22.6
2019-05-12T13:12:05.818Z,22
2019-05-12T13:17:06.212Z,21.1
2019-05-12T13:22:08.836Z,20.4
2019-05-12T13:27:11.094Z,19.9
2019-05-12T13:32:13.822Z,19.8
2019-05-12T13:37:19.374Z,19.7
2019-05-12T13:42:18.437Z,19.7
2019-05-12T13:47:21.012Z,19.9
2019-05-12T13:52:26.123Z,20
2019-05-12T13:57:25.860Z,20
2019-05-12T14:02:28.268Z,19.6
2019-05-12T14:07:30.733Z,19.2
2019-05-12T14:12:33.180Z,19.2
2019-05-12T14:17:40.060Z,19.2
2019-05-12T14:22:38.200Z,19.3
2019-05-12T14:27:40.682Z,19.4
2019-05-12T14:32:43.937Z,19.4
2019-05-12T14:37:47.421Z,19.1
2019-05-12T14:42:47.947Z,18.9
2019-05-12T14:47:50.377Z,18.4
2019-05-12T14:52:55.785Z,18.1
2019-05-12T14:57:55.341Z,17.9
2019-05-12T15:02:59.044Z,17.6
2019-05-12T15:08:00.496Z,17.2
2019-05-12T15:13:03.541Z,16.9
2019-05-12T15:18:09.326Z,16.7
2019-05-12T15:23:07.676Z,16.7
2019-05-12T15:28:10.145Z,16.8
2019-05-12T15:33:13.844Z,16.8
2019-05-12T15:38:16.784Z,16.7
2019-05-12T15:43:17.462Z,16.7
2019-05-12T15:48:19.913Z,16.9
2019-05-12T15:53:26.633Z,17
2019-05-12T15:58:24.912Z,16.8
2019-05-12T16:03:27.261Z,16.6
2019-05-12T16:08:29.807Z,16.2
2019-05-12T16:13:33.765Z,15.9
2019-05-12T16:18:34.628Z,15.6
2019-05-12T16:23:37.265Z,15.4
2019-05-12T16:28:39.602Z,15.1
2019-05-12T16:33:43.605Z,14.8
2019-05-12T16:38:44.670Z,14.7
2019-05-12T16:43:46.927Z,14.6
2019-05-12T16:48:54.335Z,14.5
2019-05-12T16:53:53.865Z,14.5
2019-05-12T16:58:54.331Z,14.5
2019-05-12T17:03:56.780Z,14.5
2019-05-12T17:08:59.210Z,14.4
2019-05-12T17:14:04.824Z,14.2
2019-05-12T17:19:05.890Z,14
2019-05-12T17:24:06.685Z,13.9
2019-05-12T17:29:09.084Z,13.9
2019-05-12T17:34:11.522Z,13.7
2019-05-12T17:39:14.135Z,13.6
2019-05-12T17:44:16.726Z,13.4
2019-05-12T17:49:25.087Z,13.2
2019-05-12T17:54:23.313Z,13
2019-05-12T17:59:28.938Z,12.8
2019-05-12T18:04:30.352Z,12.7
2019-05-12T18:09:30.600Z,12.5
2019-05-12T18:14:31.180Z,12.3
2019-05-12T18:19:34.010Z,12.1
2019-05-12T18:24:36.184Z,12
2019-05-12T18:29:38.541Z,11.9
2019-05-12T18:34:41.077Z,11.7
2019-05-12T18:39:43.867Z,11.4
2019-05-12T18:44:45.935Z,11.3
2019-05-12T18:49:50.123Z,11.2
2019-05-12T18:54:52.408Z,11
2019-05-12T18:59:54.945Z,10.8
2019-05-12T19:04:55.819Z,10.7
2019-05-12T19:09:59.266Z,10.6
2019-05-12T19:15:00.744Z,10.5
2019-05-12T19:20:05.210Z,10.4
2019-05-12T19:25:05.629Z,10.2
2019-05-12T19:30:08.037Z,10.1
2019-05-12T19:35:15.699Z,10
2019-05-12T19:40:14.772Z,9.9
2019-05-12T19:45:21.246Z,9.8
2019-05-12T19:50:18.680Z,9.6
2019-05-12T19:55:20.413Z,9.6
2019-05-12T20:00:22.840Z,9.5
2019-05-12T20:05:25.255Z,9.5
2019-05-12T20:10:27.782Z,9.5
2019-05-12T20:15:35.502Z,9.5
2019-05-12T20:20:35.884Z,9.5
2019-05-12T20:25:35.063Z,9.5
2019-05-12T20:30:37.544Z,9.5
2019-05-12T20:35:44.975Z,9.5
2019-05-12T20:40:45.068Z,9.5
2019-05-12T20:45:45.687Z,9.5
2019-05-12T20:50:47.376Z,9.5
2019-05-12T20:55:49.877Z,9.4
2019-05-12T21:00:53.778Z,9.4
2019-05-12T21:05:57.710Z,9.4
2019-05-12T21:10:57.280Z,9.3
2019-05-12T21:15:59.642Z,9.3
2019-05-12T21:21:03.499Z,9.3
2019-05-12T21:26:04.645Z,9.3
2019-05-12T21:31:08.579Z,9.3
2019-05-12T21:36:14.425Z,9.3
2019-05-12T21:41:13.306Z,9.2
2019-05-12T21:46:15.474Z,9.2
2019-05-12T21:51:19.871Z,9.2
2019-05-12T21:56:19.276Z,9.1
2019-05-12T22:01:23.865Z,9
2019-05-12T22:06:24.883Z,8.9
2019-05-12T22:11:26.695Z,8.8
2019-05-12T22:16:35.135Z,8.6
2019-05-12T22:21:35.639Z,8.5
2019-05-12T22:26:39.518Z,8.3
2019-05-12T22:31:38.453Z,8.2
2019-05-12T22:36:45.154Z,8.1
2019-05-12T22:41:41.724Z,8.1
2019-05-12T22:46:43.886Z,8
2019-05-12T22:51:46.522Z,7.9
2019-05-12T22:56:49.442Z,7.8
2019-05-12T23:01:53.962Z,7.7
2019-05-12T23:06:53.979Z,7.6
2019-05-12T23:11:56.180Z,7.6
2019-05-12T23:16:59.925Z,7.5
2019-05-12T23:22:03.341Z,7.4
2019-05-12T23:27:04.801Z,7.4
2019-05-12T23:32:09.954Z,7.3
2019-05-12T23:37:08.427Z,7.2
2019-05-12T23:42:10.917Z,7.2
2019-05-12T23:47:13.351Z,7.1
2019-05-12T23:52:15.944Z,7.1
2019-05-12T23:57:18.275Z,7.1
